createdAt,value
2017-08-24T09:42:27.196Z,56.80
2017-08-24T09:44:54.076Z,57.10
2017-08-24T09:47:21.423Z,54.50
2017-08-24T09:49:48.692Z,53.00
2017-08-24T09:52:15.781Z,51.40
2017-08-24T09:54:42.994Z,52.00
2017-08-24T09:57:11.070Z,52.20
2017-08-24T09:59:38.820Z,52.20
2017-08-24T10:02:06.272Z,52.20
2017-08-24T10:04:35.174Z,51.60
2017-08-24T10:07:04.995Z,52.00
2017-08-24T10:09:32.734Z,50.80
2017-08-24T10:12:00.408Z,50.80
2017-08-24T10:14:29.017Z,50.90
2017-08-24T10:16:56.550Z,52.30
2017-08-24T10:19:24.271Z,49.40
2017-08-24T10:21:51.441Z,49.70
2017-08-24T10:24:18.782Z,50.10
2017-08-24T10:26:46.263Z,51.60
2017-08-24T10:29:13.861Z,53.60
2017-08-24T10:31:40.865Z,55.90
2017-08-24T10:34:08.067Z,54.50
2017-08-24T10:41:40.563Z,54.20
2017-08-24T10:44:08.468Z,54.90
2017-08-24T10:46:36.115Z,56.20
2017-08-24T10:49:03.620Z,55.90
2017-08-24T10:51:30.571Z,56.40
2017-08-24T10:53:57.994Z,56.70
2017-08-24T10:56:28.861Z,55.30
2017-08-24T10:58:56.607Z,54.70
2017-08-24T11:01:25.071Z,54.70
2017-08-24T11:03:54.405Z,55.80
2017-08-24T11:06:22.097Z,55.30
2017-08-24T11:08:49.728Z,55.50
2017-08-24T11:11:17.343Z,55.60
2017-08-24T11:13:45.328Z,54.60
2017-08-24T11:16:13.417Z,54.20
2017-08-24T11:18:40.898Z,54.20
2017-08-24T11:21:12.347Z,53.90
2017-08-24T11:23:39.930Z,52.70
2017-08-24T11:26:07.549Z,52.70
2017-08-24T11:28:35.036Z,53.10
2017-08-24T11:31:02.485Z,52.80
2017-08-24T11:33:30.252Z,50.00
2017-08-24T11:35:58.224Z,50.40
2017-08-24T11:38:25.248Z,48.70
2017-08-24T11:40:52.273Z,50.10
2017-08-24T11:43:19.221Z,49.40
2017-08-24T11:45:46.910Z,50.30
2017-08-24T11:48:13.846Z,50.80
2017-08-24T11:50:41.102Z,50.60
2017-08-24T11:53:08.427Z,50.40
2017-08-24T11:55:35.732Z,49.60
2017-08-24T11:58:04.214Z,50.10
2017-08-24T12:00:31.446Z,50.10
2017-08-24T12:02:58.833Z,50.50
2017-08-24T12:05:25.769Z,49.70
2017-08-24T12:07:52.781Z,49.20
2017-08-24T12:10:19.934Z,48.90
2017-08-24T12:12:47.255Z,48.90
2017-08-24T12:15:14.863Z,48.80
2017-08-24T12:17:42.339Z,49.00
2017-08-24T12:20:09.694Z,49.40
2017-08-24T12:22:36.606Z,48.70
2017-08-24T12:25:04.469Z,48.10
2017-08-24T12:27:31.792Z,49.10
2017-08-24T12:29:59.949Z,49.60
2017-08-24T12:32:26.867Z,48.40
2017-08-24T12:34:53.863Z,48.10
2017-08-24T12:37:20.808Z,49.00
2017-08-24T12:39:47.989Z,48.60
2017-08-24T12:42:15.379Z,48.80
2017-08-24T12:44:43.637Z,48.50
2017-08-24T12:47:10.909Z,48.40
2017-08-24T12:49:37.766Z,48.20
2017-08-24T12:52:04.885Z,48.60
2017-08-24T12:54:32.013Z,48.20
2017-08-24T12:56:59.303Z,47.80
2017-08-24T12:59:26.672Z,47.40
2017-08-24T13:01:54.122Z,46.10
2017-08-24T13:04:21.169Z,46.60
2017-08-24T13:06:48.602Z,44.50
2017-08-24T13:09:16.132Z,44.80
2017-08-24T13:11:43.531Z,45.60
2017-08-24T13:14:10.946Z,46.20
2017-08-24T13:16:37.890Z,44.70
2017-08-24T13:19:05.042Z,45.30
2017-08-24T13:21:32.325Z,45.70
2017-08-24T13:23:59.325Z,45.40
2017-08-24T13:26:26.956Z,45.40
2017-08-24T13:28:53.903Z,46.90
2017-08-24T13:31:20.800Z,46.00
2017-08-24T13:33:48.387Z,46.20
2017-08-24T13:36:16.686Z,46.20
2017-08-24T13:38:43.949Z,46.20
2017-08-24T13:41:11.234Z,46.80
2017-08-24T13:43:39.351Z,46.60
2017-08-24T13:46:06.884Z,46.60
2017-08-24T13:48:34.342Z,45.80
2017-08-24T13:51:01.898Z,45.90
2017-08-24T13:53:29.499Z,44.40
2017-08-24T13:55:56.433Z,44.30
2017-08-24T13:58:23.628Z,44.30
2017-08-24T14:00:51.388Z,43.30
2017-08-24T14:03:18.588Z,43.30
2017-08-24T14:05:46.038Z,44.80
2017-08-24T14:08:13.515Z,44.50
2017-08-24T14:10:41.061Z,43.30
2017-08-24T14:13:09.132Z,41.20
2017-08-24T14:15:36.030Z,45.00
2017-08-24T14:18:05.562Z,43.20
2017-08-24T14:20:35.041Z,43.20
2017-08-24T14:23:02.849Z,44.40
2017-08-24T14:25:30.028Z,45.70
2017-08-24T14:27:57.487Z,43.50
2017-08-24T14:30:24.940Z,44.20
2017-08-24T14:32:52.601Z,44.00
2017-08-24T14:35:19.981Z,41.70
2017-08-24T14:37:47.622Z,42.80
2017-08-24T14:40:15.578Z,45.90
2017-08-24T14:42:43.147Z,45.90
2017-08-24T14:45:11.079Z,40.60
2017-08-24T14:47:38.398Z,40.10
2017-08-24T14:50:06.067Z,39.40
2017-08-24T14:52:33.001Z,41.20
2017-08-24T14:54:59.949Z,42.10
2017-08-24T14:57:27.245Z,42.40
2017-08-24T14:59:54.661Z,41.70
2017-08-24T15:02:21.624Z,42.50
2017-08-24T15:04:48.707Z,42.00
2017-08-24T15:07:16.153Z,43.30
2017-08-24T15:09:43.518Z,44.80
2017-08-24T15:12:11.037Z,47.00
2017-08-24T15:14:38.371Z,45.30
2017-08-24T15:17:05.260Z,48.80
2017-08-24T15:19:32.221Z,49.90
2017-08-24T15:21:59.113Z,48.80
2017-08-24T15:24:26.235Z,52.10
2017-08-24T15:26:53.639Z,51.80
2017-08-24T15:29:21.409Z,52.90
2017-08-24T15:31:49.460Z,52.60
2017-08-24T15:34:19.876Z,53.80
2017-08-24T15:36:47.743Z,54.70
2017-08-24T15:39:17.292Z,54.60
2017-08-24T15:41:44.414Z,56.30
2017-08-24T15:44:11.941Z,56.60
2017-08-24T15:46:39.662Z,56.40
2017-08-24T15:49:07.252Z,55.50
2017-08-24T15:51:34.447Z,55.50
2017-08-24T15:54:01.805Z,53.80
2017-08-24T15:56:29.147Z,50.60
2017-08-24T15:58:56.917Z,50.40
2017-08-24T16:01:25.222Z,58.10
2017-08-24T16:03:52.473Z,69.60
2017-08-24T16:06:20.006Z,77.10
2017-08-24T16:08:47.315Z,79.70
2017-08-24T16:11:14.282Z,83.30
2017-08-24T16:13:41.106Z,87.00
2017-08-24T16:16:08.396Z,88.40
2017-08-24T16:18:35.317Z,87.70
2017-08-24T16:21:02.525Z,88.20
2017-08-24T16:23:29.733Z,86.10
2017-08-24T16:25:57.210Z,82.70
2017-08-24T16:28:24.661Z,82.70
2017-08-24T16:30:51.589Z,85.10
2017-08-24T16:33:18.957Z,84.30
2017-08-24T16:35:46.118Z,84.20
2017-08-24T16:38:13.542Z,86.70
2017-08-24T16:40:41.049Z,87.80
2017-08-24T16:43:07.963Z,88.10
2017-08-24T16:45:34.857Z,84.60
2017-08-24T16:48:01.773Z,85.60
2017-08-24T16:50:28.764Z,84.20
2017-08-24T16:52:55.927Z,85.70
2017-08-24T16:55:23.725Z,80.60
2017-08-24T16:57:51.923Z,84.80
2017-08-24T17:00:19.105Z,86.70
2017-08-24T17:02:46.431Z,86.60
2017-08-24T17:05:13.767Z,86.60
2017-08-24T17:07:41.224Z,87.40
2017-08-24T17:10:08.757Z,87.40
2017-08-24T17:12:35.657Z,89.60
2017-08-24T17:15:02.841Z,88.90
2017-08-24T17:17:30.322Z,88.90
2017-08-24T17:19:57.792Z,90.10
2017-08-24T17:22:24.738Z,88.90
2017-08-24T17:24:51.822Z,90.30
2017-08-24T17:27:19.115Z,89.80
2017-08-24T17:29:46.670Z,90.30
2017-08-24T17:32:13.985Z,90.30
2017-08-24T17:34:41.516Z,90.00
2017-08-24T17:37:09.172Z,89.60
2017-08-24T17:39:36.182Z,89.00
2017-08-24T17:42:03.080Z,89.30
2017-08-24T17:44:30.426Z,89.60
2017-08-24T17:46:57.780Z,89.20
2017-08-24T17:49:26.222Z,88.00
2017-08-24T17:51:54.288Z,88.00
2017-08-24T17:54:21.572Z,88.30
2017-08-24T17:56:49.100Z,88.50
2017-08-24T17:59:17.954Z,89.30
2017-08-24T18:01:46.213Z,88.70
2017-08-24T18:04:13.203Z,90.00
2017-08-24T18:06:40.103Z,90.30
2017-08-24T18:09:08.019Z,89.30
2017-08-24T18:11:35.283Z,88.70
2017-08-24T18:14:02.654Z,89.10
2017-08-24T18:16:30.007Z,88.60
2017-08-24T18:18:57.179Z,87.80
2017-08-24T18:21:24.399Z,87.60
2017-08-24T18:23:51.673Z,88.20
2017-08-24T18:26:19.344Z,88.40
2017-08-24T18:28:46.226Z,88.30
2017-08-24T18:31:13.275Z,89.90
2017-08-24T18:33:40.558Z,89.20
2017-08-24T18:36:07.869Z,90.10
2017-08-24T18:38:35.288Z,89.30
2017-08-24T18:41:02.772Z,88.70
2017-08-24T18:43:29.774Z,86.70
2017-08-24T18:45:57.082Z,87.40
2017-08-24T18:48:24.504Z,85.60
2017-08-24T18:50:51.842Z,87.90
2017-08-24T18:53:19.853Z,88.00
2017-08-24T18:55:47.497Z,88.00
2017-08-24T18:58:14.954Z,88.50
2017-08-24T19:00:42.342Z,89.40
2017-08-24T19:03:09.897Z,89.50
2017-08-24T19:05:40.355Z,88.70
2017-08-24T19:08:07.698Z,89.20
2017-08-24T19:10:37.537Z,89.40
2017-08-24T19:13:04.888Z,89.70
2017-08-24T19:15:31.817Z,90.50
2017-08-24T19:17:58.914Z,90.70
2017-08-24T19:20:27.108Z,90.70
2017-08-24T19:22:54.363Z,90.90
2017-08-24T19:25:21.607Z,91.00
2017-08-24T19:27:48.988Z,90.50
2017-08-24T19:30:16.834Z,90.00
2017-08-24T19:32:44.257Z,90.00
2017-08-24T19:35:11.860Z,90.90
2017-08-24T19:37:41.732Z,90.80
2017-08-24T19:40:09.221Z,91.40
2017-08-24T19:42:38.551Z,91.10
2017-08-24T19:45:05.561Z,91.10
2017-08-24T19:47:32.396Z,90.90
2017-08-24T19:49:59.301Z,90.10
2017-08-24T19:52:26.455Z,90.40
2017-08-24T19:54:53.750Z,90.20
2017-08-24T19:57:21.145Z,90.00
2017-08-24T19:59:49.508Z,90.90
2017-08-24T20:02:16.679Z,90.90
2017-08-24T20:04:44.100Z,91.20
2017-08-24T20:07:11.677Z,91.10
2017-08-24T20:09:38.547Z,91.40
2017-08-24T20:12:05.832Z,91.20
2017-08-24T20:14:32.696Z,91.00
2017-08-24T20:17:00.416Z,90.70
2017-08-24T20:19:27.412Z,91.10
2017-08-24T20:21:54.480Z,91.10
2017-08-24T20:24:21.820Z,90.90
2017-08-24T20:26:49.356Z,91.40
2017-08-24T20:29:16.928Z,91.20
2017-08-24T20:31:45.398Z,91.30
2017-08-24T20:34:12.662Z,91.20
2017-08-24T20:36:39.604Z,91.10
2017-08-24T20:39:06.574Z,90.50
2017-08-24T20:41:33.944Z,90.90
2017-08-24T20:44:01.359Z,90.80
2017-08-24T20:46:28.252Z,90.90
2017-08-24T20:48:55.255Z,91.10
2017-08-24T20:51:22.804Z,91.60
2017-08-24T20:53:51.601Z,91.80
2017-08-24T20:56:19.383Z,91.80
2017-08-24T20:58:46.372Z,91.80
2017-08-24T21:01:13.864Z,91.30
2017-08-24T21:03:40.801Z,91.80
2017-08-24T21:09:01.987Z,91.40
2017-08-24T21:11:29.281Z,91.30
2017-08-24T21:13:56.635Z,90.90
